Pagina principale
METAR-TAF:

METAR-TAF

Aeroporti :

Batajnica, Serbia

latitudine: 44-56-07N, longitudine: 020-15-27E, altezza: 86 m

Osservazione

Il bollettino è stato emesso 24 minuti fa, alle 00:30 UTC
Vento 1 kt da direzioni variabili
Temperature 22°C
Umidità 88%
Pressione 1018 hPa
Visibilità 10 km o più
nessuna nube inferiore a 1500 m e nessun cumulonembo

METAR: LYBT 210030Z VRB01KT CAVOK 22/20 Q1018 NOSIG

Ora: 02:54 (00:54 UTC)

Previsione

Il bollettino è stato emesso 1 ora e 54 minuti fa, alle 23:00 UTC
Previsione valida dal 21 alle 00 UTC al 21 alle 24 UTC
Vento 4 kt da nord/nord-est
Visibilità 10 km o più
nessuna nube inferiore a 1500 m e nessun cumulonembo
Evoluzione graduale
dal 21 alle 04 UTC al 21 alle 06 UTC
Vento 10 kt da sud-est

TAF: LYBT 202300Z 2100/2124 02004KT CAVOK TX36/2113Z TN20/2103Z BECMG 2104/2106 13010KT

Osservazioni e previsioni meteorologiche di più di 4000 aeroporti (messaggi METAR e TAF).

Le stazioni disponibili sono rappresentate dai dischi gialli e rossi sulla carta.

Puntare il mouse per vedere il nome della stazione.

Clicca sopra per visualizzare le osservazioni e previsioni meteorologiche.

Per cambiare la mappa : fare clic sui pulsanti verdi con una croce nera per ingrandire, il pulsante verde con un trattino per diminuire, o sulla freccia verde per le mappe adiacenti.


METAR-TAF: